Main page
METAR-TAF:

METAR-TAF

Airports :

Copernicus Airport Wrocław

Wrocław, Poland

latitude: 51-06N, longitude: 016-53E, elevation: 120 m

Current weather observation

The report was made 7 minutes ago, at 03:30 UTC
Wind 4 kt from the East/Southeast
Temperature 15°C
Humidity 88%
Pressure 1016 hPa
Visibility 10 km or more
no clouds below 1500 m and no cumulonimbus

METAR: EPWR 170330Z 12004KT CAVOK 15/13 Q1016

Time: 05:37 (03:37 UTC)

Forecast

The report was made 1 hour and 7 minutes ago, at 02:30 UTC
Forecast valid from 17 at 03 UTC to 18 at 03 UTC
Wind 5 kt from the East/Southeast
Visibility 10 km or more
no clouds below 1500 m and no cumulonimbus

TAF: EPWR 170230Z 1703/1803 11005KT CAVOK

Weather observations and forecasts of more than 4000 airports (METAR and TAF reports).

The available stations are represented by yellow and red dots on the map.

Hover mouse over dot to see the name of the station.

Then click to see weather observations and forecasts.

To change the map : click on the green buttons with a black cross to zoom in, on the green button with a dash to zoom out, or on the green arrows for adjacent maps.


METAR-TAF: